Time;durP1;ratioP1;P1;durP2;ratioP2;P2;SDS_P1;SDS_P2;PMS_P1;PMS_P2;Temp;Humidity;BMP_temperature;BMP_pressure;BME280_temperature;BME280_humidity;BME280_pressure;Samples;Min_cycle;Max_cycle;Signal;HPM_P1;HPM_P2
2021/09/11 00:05:07;;;;;;;2.60;2.40;;;20.00;83.90;;;;;;10452412;28;20220;-69
2021/09/11 00:10:30;;;;;;;3.83;2.50;;;20.00;83.80;;;;;;10450652;28;20221;-69
2021/09/11 00:15:52;;;;;;;2.40;2.20;;;20.00;83.80;;;;;;10455713;28;20697;-69
2021/09/11 00:21:16;;;;;;;3.10;2.80;;;20.00;83.80;;;;;;10458060;28;20631;-70
2021/09/11 00:26:38;;;;;;;3.33;2.83;;;20.00;83.90;;;;;;10459972;28;20217;-69
2021/09/11 00:32:02;;;;;;;2.90;2.67;;;20.00;83.80;;;;;;10458450;28;20246;-69
2021/09/11 00:37:25;;;;;;;3.53;3.00;;;20.00;83.80;;;;;;10424501;28;20197;-69
2021/09/11 00:42:48;;;;;;;3.17;2.87;;;20.00;83.70;;;;;;10417116;28;20619;-69
2021/09/11 00:48:10;;;;;;;5.10;2.90;;;20.10;83.70;;;;;;10420140;28;20197;-69
2021/09/11 00:53:34;;;;;;;3.53;3.23;;;20.00;83.50;;;;;;10425357;28;20224;-70
2021/09/11 00:58:57;;;;;;;4.03;3.10;;;20.00;83.20;;;;;;10459644;28;20204;-69
2021/09/11 01:04:19;;;;;;;3.47;2.90;;;20.10;83.10;;;;;;10457048;28;20225;-69
2021/09/11 01:09:42;;;;;;;3.60;3.23;;;20.00;82.90;;;;;;10457835;28;20749;-69
2021/09/11 01:15:05;;;;;;;3.50;3.20;;;20.10;82.90;;;;;;10458346;28;20566;-69
2021/09/11 01:20:28;;;;;;;2.90;2.70;;;20.00;82.70;;;;;;10457264;28;20721;-69
2021/09/11 01:25:52;;;;;;;3.50;3.20;;;20.00;82.90;;;;;;10455239;28;20217;-69
2021/09/11 01:31:14;;;;;;;3.13;2.90;;;20.10;83.00;;;;;;10455327;28;20213;-69
2021/09/11 01:36:36;;;;;;;4.57;3.67;;;20.00;82.80;;;;;;10456904;28;20200;-69
2021/09/11 01:41:59;;;;;;;3.67;3.37;;;20.10;82.90;;;;;;10455702;28;20209;-69
2021/09/11 01:47:22;;;;;;;3.83;3.47;;;20.00;83.00;;;;;;10456018;28;20689;-69
2021/09/11 01:52:44;;;;;;;4.87;4.00;;;20.10;83.10;;;;;;10500873;22;20231;-64
2021/09/11 01:58:08;;;;;;;3.83;3.43;;;20.00;83.00;;;;;;10468456;28;20197;-64
2021/09/11 02:03:30;;;;;;;3.30;3.00;;;20.10;83.00;;;;;;10448036;28;20709;-64
2021/09/11 02:08:52;;;;;;;6.83;3.80;;;20.10;82.80;;;;;;10455956;28;20700;-64
2021/09/11 02:14:15;;;;;;;3.83;3.13;;;20.10;82.60;;;;;;10455650;28;20209;-64
2021/09/11 02:19:37;;;;;;;3.80;3.10;;;20.10;82.70;;;;;;10454269;28;20204;-65
2021/09/11 02:24:59;;;;;;;3.77;3.30;;;20.00;82.60;;;;;;10453571;28;20232;-65
2021/09/11 02:30:23;;;;;;;3.50;3.17;;;20.00;82.70;;;;;;10453832;28;20204;-65
2021/09/11 02:35:45;;;;;;;3.80;3.40;;;20.10;82.70;;;;;;10452449;28;20188;-64
2021/09/11 02:41:07;;;;;;;4.27;3.87;;;20.10;82.60;;;;;;10453561;28;20266;-65
2021/09/11 02:46:31;;;;;;;4.83;4.03;;;20.00;82.50;;;;;;10453543;28;20685;-65
2021/09/11 02:51:54;;;;;;;4.40;4.10;;;20.00;82.40;;;;;;10452244;28;20690;-65
2021/09/11 02:57:16;;;;;;;4.20;3.80;;;20.10;82.40;;;;;;10412526;28;20189;-65
2021/09/11 03:02:39;;;;;;;4.93;3.83;;;20.00;82.30;;;;;;10411882;28;20223;-64
2021/09/11 03:08:01;;;;;;;3.83;3.53;;;20.10;82.30;;;;;;10410771;28;20193;-65
2021/09/11 03:13:23;;;;;;;3.80;3.50;;;20.00;82.10;;;;;;10410581;28;20214;-64
2021/09/11 03:18:47;;;;;;;4.70;4.30;;;20.00;82.10;;;;;;10437622;28;20197;-65
2021/09/11 03:24:09;;;;;;;4.83;4.23;;;20.10;82.20;;;;;;10451966;28;20232;-65
2021/09/11 03:29:31;;;;;;;4.30;3.90;;;20.10;82.20;;;;;;10451853;28;20573;-64
2021/09/11 03:34:54;;;;;;;6.17;4.40;;;20.10;82.10;;;;;;10450870;28;20558;-65
2021/09/11 03:40:17;;;;;;;4.20;3.77;;;20.10;82.20;;;;;;10452024;28;20188;-65
2021/09/11 03:45:39;;;;;;;4.43;4.03;;;20.10;82.10;;;;;;10449701;28;20692;-65
2021/09/11 03:51:03;;;;;;;4.30;3.90;;;20.00;82.00;;;;;;10448610;28;20225;-64
2021/09/11 03:56:25;;;;;;;3.60;3.30;;;20.10;82.10;;;;;;10452577;28;20197;-65
2021/09/11 04:01:47;;;;;;;4.77;4.37;;;20.00;82.00;;;;;;10450903;28;20232;-65
2021/09/11 04:07:11;;;;;;;5.50;4.10;;;20.10;82.00;;;;;;10451135;28;20225;-64
2021/09/11 04:12:33;;;;;;;4.27;3.87;;;20.10;82.00;;;;;;10451236;28;20581;-64
2021/09/11 04:17:55;;;;;;;4.47;4.07;;;20.10;82.00;;;;;;10449667;28;20193;-65
2021/09/11 04:23:18;;;;;;;3.83;3.53;;;20.10;82.10;;;;;;10467480;28;20232;-64
2021/09/11 04:28:40;;;;;;;4.43;4.03;;;20.10;82.20;;;;;;10471872;28;20197;-64
2021/09/11 04:34:03;;;;;;;4.63;4.23;;;20.10;82.20;;;;;;10450417;28;20212;-64
2021/09/11 04:39:26;;;;;;;4.60;4.20;;;20.10;82.20;;;;;;10449586;28;20250;-65
2021/09/11 04:44:48;;;;;;;4.93;4.40;;;20.10;82.30;;;;;;10450878;28;20225;-65
2021/09/11 04:50:11;;;;;;;4.60;4.20;;;20.10;82.30;;;;;;10449456;28;20201;-65
2021/09/11 04:55:34;;;;;;;4.83;4.33;;;20.10;82.30;;;;;;10449407;28;20658;-64
2021/09/11 05:00:56;;;;;;;5.40;4.80;;;20.00;82.40;;;;;;10450002;28;20217;-64
2021/09/11 05:06:19;;;;;;;5.63;5.03;;;20.00;82.20;;;;;;10454203;28;20660;-64
2021/09/11 05:11:43;;;;;;;4.53;4.13;;;20.00;82.20;;;;;;10454456;28;20681;-64
2021/09/11 05:17:05;;;;;;;5.07;4.30;;;20.10;82.30;;;;;;10455343;28;20193;-64
2021/09/11 05:22:27;;;;;;;4.13;3.83;;;20.00;82.20;;;;;;10454885;28;20224;-64
2021/09/11 05:27:51;;;;;;;4.50;4.10;;;20.00;82.30;;;;;;10444314;28;20725;-64
2021/09/11 05:33:13;;;;;;;5.00;4.57;;;20.00;82.50;;;;;;10437431;28;20634;-64
2021/09/11 05:38:35;;;;;;;5.37;4.63;;;20.00;82.60;;;;;;10456896;28;20208;-64
2021/09/11 05:43:59;;;;;;;5.43;4.93;;;20.00;82.90;;;;;;10455656;28;20598;-64
2021/09/11 05:49:21;;;;;;;6.60;6.00;;;20.00;83.10;;;;;;10455495;28;20188;-64
2021/09/11 05:54:43;;;;;;;6.23;5.63;;;20.00;83.50;;;;;;10455098;28;20225;-64
2021/09/11 06:00:08;;;;;;;7.53;6.47;;;20.00;83.70;;;;;;10454662;28;20208;-64
2021/09/11 06:05:30;;;;;;;7.77;6.83;;;20.00;83.80;;;;;;10442790;28;20690;-64
2021/09/11 06:10:52;;;;;;;9.40;8.47;;;19.90;83.80;;;;;;10423419;28;20708;-63
2021/09/11 06:16:15;;;;;;;8.73;7.83;;;20.00;84.60;;;;;;10445004;28;20193;-63
2021/09/11 06:21:37;;;;;;;8.60;7.27;;;20.00;82.60;;;;;;10450854;28;20209;-63
2021/09/11 06:26:59;;;;;;;6.53;5.93;;;20.10;80.30;;;;;;10450241;28;20216;-63
2021/09/11 06:32:23;;;;;;;7.27;6.20;;;20.20;78.60;;;;;;10447842;28;20720;-63
2021/09/11 06:37:45;;;;;;;5.60;5.07;;;20.30;77.20;;;;;;10449368;28;20194;-63
2021/09/11 06:43:07;;;;;;;5.17;4.53;;;20.30;76.00;;;;;;10412504;28;20220;-63
2021/09/11 06:48:30;;;;;;;7.43;4.47;;;20.40;75.10;;;;;;10453358;28;20190;-63
2021/09/11 06:53:53;;;;;;;4.83;4.27;;;20.40;74.30;;;;;;10443522;28;20229;-63
2021/09/11 06:59:15;;;;;;;5.63;4.63;;;20.40;73.60;;;;;;10440186;28;20582;-62
2021/09/11 07:04:38;;;;;;;4.47;4.03;;;20.40;73.00;;;;;;10452591;28;20585;-63
2021/09/11 07:10:00;;;;;;;3.97;3.67;;;20.50;72.60;;;;;;10452495;28;20574;-63
2021/09/11 07:15:22;;;;;;;3.90;3.60;;;20.50;74.20;;;;;;10450846;28;20220;-63
2021/09/11 07:20:46;;;;;;;3.90;3.60;;;20.40;73.80;;;;;;10412917;28;20217;-63
2021/09/11 07:26:08;;;;;;;4.20;3.80;;;20.40;73.00;;;;;;10409011;28;20222;-63
2021/09/11 07:31:30;;;;;;;4.00;3.60;;;20.50;73.10;;;;;;10449542;28;20220;-63
2021/09/11 07:36:53;;;;;;;3.73;3.43;;;20.40;74.20;;;;;;10452170;28;20654;-63
2021/09/11 07:42:16;;;;;;;4.50;3.50;;;20.40;73.30;;;;;;10450527;28;20240;-63
2021/09/11 07:47:38;;;;;;;4.53;4.18;;;20.50;73.70;;;;;;10448060;28;20450;-63
2021/09/11 07:53:02;;;;;;;3.90;3.60;;;20.90;72.60;;;;;;10498848;22;20229;-65
2021/09/11 07:58:24;;;;;;;4.33;3.70;;;20.70;72.10;;;;;;10491040;28;20246;-64
2021/09/11 08:03:46;;;;;;;3.93;3.63;;;20.60;72.40;;;;;;10450076;28;20695;-64
2021/09/11 08:09:10;;;;;;;4.23;3.83;;;20.50;73.60;;;;;;10449737;28;20216;-65
2021/09/11 08:14:32;;;;;;;3.90;3.53;;;20.50;72.90;;;;;;10450420;28;20572;-67
2021/09/11 08:19:54;;;;;;;4.07;3.60;;;20.50;72.70;;;;;;10450502;28;20217;-66
2021/09/11 08:25:17;;;;;;;4.13;3.80;;;20.50;74.50;;;;;;10449534;28;20232;-65
2021/09/11 08:30:40;;;;;;;4.23;3.83;;;20.40;72.90;;;;;;10448620;28;20213;-65
2021/09/11 08:36:02;;;;;;;4.20;3.80;;;20.50;73.20;;;;;;10455776;28;20232;-65
2021/09/11 08:41:27;;;;;;;3.87;3.57;;;20.40;73.80;;;;;;10456691;28;20216;-65
2021/09/11 08:46:49;;;;;;;3.83;3.53;;;20.40;72.80;;;;;;10459965;28;20209;-64
2021/09/11 08:52:13;;;;;;;4.70;4.30;;;20.40;72.80;;;;;;10448715;28;20228;-65
2021/09/11 08:57:36;;;;;;;4.07;3.60;;;20.40;73.60;;;;;;10456174;28;20200;-64
2021/09/11 09:02:58;;;;;;;4.63;4.17;;;20.40;72.60;;;;;;10455919;28;20209;-64
2021/09/11 09:08:28;;;;;;;4.63;4.17;;;20.50;73.20;;;;;;10456536;28;20569;-64
2021/09/11 09:14:00;;;;;;;3.70;3.40;;;20.40;73.60;;;;;;10456589;28;20220;-64
2021/09/11 09:19:24;;;;;;;3.73;3.43;;;20.40;72.40;;;;;;10455865;28;20220;-64
2021/09/11 09:24:46;;;;;;;3.63;3.33;;;20.40;73.30;;;;;;10455712;28;20235;-65
2021/09/11 09:30:11;;;;;;;4.00;3.60;;;20.40;73.40;;;;;;10430195;28;20219;-66
2021/09/11 09:35:33;;;;;;;3.87;3.20;;;20.40;72.60;;;;;;10431254;28;20193;-65
2021/09/11 09:40:55;;;;;;;3.70;3.40;;;20.40;73.70;;;;;;10447481;28;20228;-65
2021/09/11 09:46:20;;;;;;;3.93;3.53;;;20.40;73.10;;;;;;10447656;28;20705;-65
2021/09/11 09:51:43;;;;;;;4.03;3.73;;;20.40;73.00;;;;;;10449193;28;20503;-65
2021/09/11 09:57:07;;;;;;;3.47;3.17;;;20.40;73.80;;;;;;10447885;28;20192;-65
2021/09/11 10:02:32;;;;;;;3.40;3.10;;;20.40;72.80;;;;;;10446577;28;20695;-65
2021/09/11 10:08:05;;;;;;;4.10;3.70;;;20.40;73.00;;;;;;10448467;28;20209;-65
2021/09/11 10:13:28;;;;;;;3.50;3.20;;;20.40;73.50;;;;;;10446220;28;20290;-65
2021/09/11 10:18:52;;;;;;;3.50;3.20;;;20.40;72.50;;;;;;10447761;28;20193;-65
2021/09/11 10:24:32;;;;;;;3.67;3.37;;;20.40;73.40;;;;;;10447344;28;20676;-64
2021/09/11 10:29:56;;;;;;;3.10;2.90;;;20.40;72.90;;;;;;10439090;28;20665;-65
2021/09/11 10:35:24;;;;;;;3.47;3.17;;;20.40;72.50;;;;;;10448890;28;20212;-63
2021/09/11 10:40:47;;;;;;;3.20;3.00;;;20.40;73.50;;;;;;10449370;28;20628;-62
2021/09/11 10:46:11;;;;;;;3.50;3.20;;;20.40;73.00;;;;;;10453572;28;20213;-67
2021/09/11 10:51:36;;;;;;;3.30;3.00;;;20.40;73.50;;;;;;10452901;28;20229;-64
2021/09/11 10:57:06;;;;;;;3.33;3.03;;;20.40;73.70;;;;;;10452515;28;20197;-62
2021/09/11 11:02:38;;;;;;;3.40;3.10;;;20.40;72.60;;;;;;10449326;28;20503;-64
2021/09/11 11:08:02;;;;;;;3.17;2.90;;;20.40;73.10;;;;;;10413254;28;20703;-66
2021/09/11 11:13:25;;;;;;;3.37;2.93;;;20.40;73.40;;;;;;10437125;28;20340;-65
2021/09/11 11:18:48;;;;;;;2.80;2.60;;;20.40;72.30;;;;;;10450190;28;20579;-65
2021/09/11 11:24:11;;;;;;;3.30;3.00;;;20.40;73.40;;;;;;10450511;28;20201;-65
2021/09/11 11:29:34;;;;;;;2.87;2.67;;;20.40;73.30;;;;;;10425631;28;20468;-65
2021/09/11 11:35:00;;;;;;;3.20;2.90;;;20.40;73.10;;;;;;10447424;28;20208;-65
2021/09/11 11:40:25;;;;;;;2.73;2.53;;;20.40;73.90;;;;;;10434097;28;20217;-65
2021/09/11 11:45:48;;;;;;;2.90;2.70;;;20.40;72.80;;;;;;10450720;28;20753;-66
2021/09/11 11:51:13;;;;;;;2.80;2.60;;;20.40;73.80;;;;;;10449642;28;20217;-64
2021/09/11 11:56:49;;;;;;;2.67;2.47;;;20.40;73.50;;;;;;10449138;28;20223;-64
2021/09/11 12:02:23;;;;;;;2.63;2.43;;;20.40;72.30;;;;;;10449303;28;20571;-64
2021/09/11 12:07:57;;;;;;;2.30;2.13;;;20.40;73.70;;;;;;10449716;28;20209;-64
2021/09/11 12:13:21;;;;;;;2.60;2.40;;;20.40;72.70;;;;;;10457668;28;20223;-65
2021/09/11 12:18:44;;;;;;;2.90;2.70;;;20.40;72.60;;;;;;10458243;28;20189;-64
2021/09/11 12:24:18;;;;;;;2.37;2.17;;;20.40;73.30;;;;;;10450703;28;20247;-64
2021/09/11 12:29:41;;;;;;;2.20;2.00;;;20.40;72.70;;;;;;10456264;28;20217;-64
2021/09/11 12:35:08;;;;;;;2.20;2.10;;;20.40;72.70;;;;;;10456362;28;20201;-65
2021/09/11 12:40:30;;;;;;;2.40;2.20;;;20.40;73.50;;;;;;10456269;28;20227;-65
2021/09/11 12:45:57;;;;;;;2.40;2.20;;;20.40;72.40;;;;;;10436458;28;20224;-65
2021/09/11 12:51:19;;;;;;;2.17;1.70;;;20.40;73.00;;;;;;10407869;28;20240;-64
2021/09/11 12:56:41;;;;;;;2.47;2.27;;;20.40;73.50;;;;;;10444985;28;20571;-65
2021/09/11 13:02:05;;;;;;;2.27;2.03;;;20.40;72.40;;;;;;10443867;28;20221;-65
2021/09/11 13:07:27;;;;;;;2.10;2.00;;;20.40;73.60;;;;;;10444727;28;20236;-65
2021/09/11 13:12:50;;;;;;;2.27;2.07;;;20.40;73.50;;;;;;10450145;28;20227;-65
2021/09/11 13:18:13;;;;;;;2.30;2.10;;;20.40;72.40;;;;;;10449181;28;20189;-65
2021/09/11 13:23:36;;;;;;;2.37;2.17;;;20.40;73.40;;;;;;10447428;28;20204;-65
2021/09/11 13:29:02;;;;;;;1.90;1.80;;;20.40;73.30;;;;;;10447631;28;20319;-65
2021/09/11 13:34:30;;;;;;;2.00;1.90;;;20.40;72.20;;;;;;10442501;28;20201;-64
2021/09/11 13:39:52;;;;;;;2.27;2.10;;;20.40;73.40;;;;;;10447811;28;20936;-65
2021/09/11 13:45:16;;;;;;;2.37;2.17;;;20.40;73.40;;;;;;10447915;28;20257;-64
2021/09/11 13:50:40;;;;;;;2.60;2.40;;;20.40;72.70;;;;;;10447037;28;20224;-65
2021/09/11 13:56:02;;;;;;;2.40;2.20;;;20.40;73.80;;;;;;10447563;28;20228;-65
2021/09/11 14:01:24;;;;;;;2.67;2.47;;;20.40;73.20;;;;;;10447163;28;20217;-64
2021/09/11 14:06:48;;;;;;;3.10;2.40;;;20.40;73.70;;;;;;10447267;28;20224;-66
2021/09/11 14:12:10;;;;;;;2.67;2.20;;;20.40;74.40;;;;;;10446493;28;20225;-65
2021/09/11 14:17:32;;;;;;;2.57;2.30;;;20.40;72.90;;;;;;10447846;28;20572;-64
2021/09/11 14:22:56;;;;;;;2.53;2.20;;;20.40;73.40;;;;;;10469758;22;20254;-62
2021/09/11 14:28:18;;;;;;;2.70;2.50;;;20.40;74.10;;;;;;10493978;28;20227;-62
2021/09/11 14:33:40;;;;;;;3.50;2.10;;;20.40;72.70;;;;;;10451021;28;20664;-63
2021/09/11 14:39:05;;;;;;;3.17;2.90;;;20.40;72.90;;;;;;10450722;28;20710;-63
2021/09/11 14:44:27;;;;;;;2.30;2.10;;;20.40;73.70;;;;;;10472613;28;20197;-62
2021/09/11 14:49:50;;;;;;;2.30;2.10;;;20.40;72.80;;;;;;10450904;28;20687;-62
2021/09/11 14:55:13;;;;;;;2.60;2.20;;;20.40;73.70;;;;;;10451653;28;20197;-63
2021/09/11 15:00:35;;;;;;;2.40;2.20;;;20.40;74.00;;;;;;10453971;28;20711;-63
2021/09/11 15:05:57;;;;;;;2.70;2.40;;;20.40;72.70;;;;;;10466138;28;20208;-63
2021/09/11 15:11:21;;;;;;;2.57;2.27;;;20.50;74.00;;;;;;10468004;28;20234;-64
2021/09/11 15:16:43;;;;;;;2.20;2.00;;;20.40;73.90;;;;;;10469723;28;20197;-62
2021/09/11 15:22:05;;;;;;;2.90;2.57;;;20.40;72.60;;;;;;10467581;28;20213;-62
2021/09/11 15:27:31;;;;;;;2.87;2.40;;;20.40;73.80;;;;;;10469872;28;20209;-64
2021/09/11 15:32:53;;;;;;;2.93;2.37;;;20.40;73.80;;;;;;10473387;28;20739;-64
2021/09/11 15:38:15;;;;;;;2.77;2.30;;;20.50;72.60;;;;;;10409743;28;20185;-63
2021/09/11 15:43:39;;;;;;;2.73;2.53;;;20.40;73.70;;;;;;10416144;28;20219;-62
2021/09/11 15:49:01;;;;;;;3.80;2.63;;;20.40;73.50;;;;;;10450507;28;20217;-62
2021/09/11 15:54:23;;;;;;;3.33;2.90;;;20.50;72.70;;;;;;10451341;28;20584;-62
2021/09/11 15:59:47;;;;;;;2.37;2.07;;;20.40;73.70;;;;;;10449425;28;20216;-64
2021/09/11 16:05:14;;;;;;;2.20;2.10;;;20.40;73.40;;;;;;10450779;28;20696;-62
2021/09/11 16:10:37;;;;;;;2.73;2.47;;;20.40;72.40;;;;;;10449676;28;20696;-62
2021/09/11 16:16:00;;;;;;;2.43;2.07;;;20.40;73.50;;;;;;10450198;28;20193;-62
2021/09/11 16:21:22;;;;;;;2.20;2.00;;;20.40;73.30;;;;;;10449589;28;20596;-64
2021/09/11 16:26:45;;;;;;;2.33;2.13;;;20.50;72.70;;;;;;10449191;28;20221;-62
2021/09/11 16:32:08;;;;;;;2.03;1.90;;;20.40;73.50;;;;;;10447895;28;20287;-63
2021/09/11 16:37:30;;;;;;;3.00;2.17;;;20.40;73.10;;;;;;10448953;28;20197;-63
2021/09/11 16:42:52;;;;;;;2.63;2.20;;;20.40;73.00;;;;;;10447599;28;20625;-60
2021/09/11 16:48:16;;;;;;;2.10;2.00;;;20.40;73.70;;;;;;10449065;28;20219;-62
2021/09/11 16:53:41;;;;;;;2.50;2.27;;;20.40;72.70;;;;;;10455429;28;20672;-60
2021/09/11 16:59:03;;;;;;;2.57;2.30;;;20.40;73.20;;;;;;10497157;28;20212;-64
2021/09/11 17:04:26;;;;;;;2.72;2.45;;;20.40;73.80;;;;;;10462832;28;20460;-63
2021/09/11 17:09:48;;;;;;;2.93;2.63;;;20.80;70.70;;;;;;10454447;28;20246;-63
2021/09/11 17:15:12;;;;;;;2.80;2.60;;;20.70;73.30;;;;;;10456285;28;20197;-63
2021/09/11 17:20:37;;;;;;;2.57;2.37;;;20.60;74.10;;;;;;10454125;28;20208;-63
2021/09/11 17:25:59;;;;;;;2.87;2.60;;;20.50;72.70;;;;;;10455607;28;20267;-64
2021/09/11 17:31:21;;;;;;;3.63;2.90;;;20.50;73.30;;;;;;10452930;28;20197;-64
2021/09/11 17:36:44;;;;;;;2.97;2.53;;;20.50;74.30;;;;;;10455272;28;20193;-64
2021/09/11 17:42:07;;;;;;;4.27;2.50;;;20.50;73.70;;;;;;10453988;28;20217;-63
2021/09/11 17:47:29;;;;;;;2.63;2.43;;;20.50;72.70;;;;;;10413720;28;20229;-63
2021/09/11 17:52:52;;;;;;;2.77;2.57;;;20.50;74.00;;;;;;10433270;28;20225;-63
2021/09/11 17:58:15;;;;;;;4.33;2.70;;;20.50;73.80;;;;;;10454027;28;20201;-63
2021/09/11 18:03:37;;;;;;;4.10;2.90;;;20.50;72.70;;;;;;10452905;28;20598;-62
2021/09/11 18:09:01;;;;;;;2.90;2.70;;;20.50;73.80;;;;;;10452313;28;20722;-64
2021/09/11 18:14:23;;;;;;;3.73;2.80;;;20.50;74.50;;;;;;10454988;28;20201;-63
2021/09/11 18:19:45;;;;;;;2.83;2.63;;;20.50;73.20;;;;;;10454046;28;20583;-63
2021/09/11 18:25:09;;;;;;;3.40;3.10;;;20.60;72.90;;;;;;10454442;28;20435;-63
2021/09/11 18:30:32;;;;;;;5.93;2.87;;;20.80;73.60;;;;;;10445831;28;20232;-62
2021/09/11 18:35:54;;;;;;;2.90;2.67;;;20.60;73.20;;;;;;10451115;28;20204;-63
2021/09/11 18:41:18;;;;;;;3.33;2.90;;;20.60;72.20;;;;;;10466399;28;20217;-62
2021/09/11 18:46:40;;;;;;;2.70;2.50;;;20.60;73.70;;;;;;10459313;28;20560;-63
2021/09/11 18:52:03;;;;;;;3.57;2.60;;;20.60;74.00;;;;;;10448691;28;20699;-63
2021/09/11 18:57:27;;;;;;;2.73;2.53;;;20.60;72.70;;;;;;10483473;28;20199;-62
2021/09/11 19:02:49;;;;;;;3.90;2.97;;;20.60;72.10;;;;;;10452117;28;20588;-64
2021/09/11 19:08:12;;;;;;;2.77;2.50;;;20.60;73.50;;;;;;10453433;28;20217;-63
2021/09/11 19:13:35;;;;;;;2.70;2.50;;;20.60;73.10;;;;;;10457729;28;20217;-63
2021/09/11 19:18:57;;;;;;;2.77;2.57;;;20.60;72.70;;;;;;10450179;28;20680;-61
2021/09/11 19:24:19;;;;;;;3.03;2.73;;;20.50;73.80;;;;;;10452463;28;20205;-62
2021/09/11 19:29:43;;;;;;;2.50;2.30;;;20.50;72.90;;;;;;10450684;28;20221;-64
2021/09/11 19:35:06;;;;;;;2.60;2.40;;;20.60;73.20;;;;;;10450656;28;20188;-64
2021/09/11 19:40:28;;;;;;;2.90;2.70;;;20.50;73.50;;;;;;10448161;28;20259;-62
2021/09/11 19:45:53;;;;;;;3.03;2.60;;;20.60;72.90;;;;;;10452991;28;20200;-62
2021/09/11 19:51:17;;;;;;;3.40;2.90;;;20.50;73.00;;;;;;10449995;28;20554;-67
2021/09/11 19:56:39;;;;;;;2.50;2.30;;;20.50;73.80;;;;;;10450183;28;20204;-63
2021/09/11 20:02:03;;;;;;;3.97;2.80;;;20.50;72.80;;;;;;10447268;28;20588;-62
2021/09/11 20:07:25;;;;;;;3.20;2.70;;;20.50;73.20;;;;;;10450917;28;20221;-64
2021/09/11 20:12:48;;;;;;;2.60;2.40;;;20.50;73.80;;;;;;10451045;28;20220;-63
2021/09/11 20:18:11;;;;;;;2.80;2.30;;;20.50;72.60;;;;;;10449893;28;20205;-64
2021/09/11 20:23:33;;;;;;;2.70;2.50;;;20.50;73.20;;;;;;10477304;22;20224;-65
2021/09/11 20:28:55;;;;;;;2.60;2.40;;;20.50;73.70;;;;;;10473714;28;20592;-65
2021/09/11 20:34:19;;;;;;;2.50;2.30;;;20.50;72.40;;;;;;10459346;28;20213;-65
2021/09/11 20:39:41;;;;;;;2.87;2.67;;;20.50;73.90;;;;;;10459358;28;20193;-65
2021/09/11 20:45:04;;;;;;;2.30;2.10;;;20.50;73.40;;;;;;10472336;28;20213;-65
2021/09/11 20:50:27;;;;;;;2.60;2.40;;;20.50;72.40;;;;;;10457422;28;20220;-65
2021/09/11 20:55:50;;;;;;;2.67;2.43;;;20.50;73.50;;;;;;10457595;28;20213;-65
2021/09/11 21:01:12;;;;;;;2.50;2.30;;;20.50;73.10;;;;;;10455053;28;20189;-65
2021/09/11 21:06:36;;;;;;;2.70;2.50;;;20.50;72.80;;;;;;10453476;28;20221;-65
2021/09/11 21:11:58;;;;;;;2.17;2.07;;;20.50;73.70;;;;;;10455219;28;20591;-64
2021/09/11 21:17:20;;;;;;;2.63;1.97;;;20.50;72.80;;;;;;10455612;28;20570;-65
2021/09/11 21:22:44;;;;;;;2.37;2.17;;;20.50;73.10;;;;;;10455759;28;20272;-65
2021/09/11 21:28:07;;;;;;;2.37;2.17;;;20.50;73.70;;;;;;10462177;28;20217;-65
2021/09/11 21:33:29;;;;;;;2.47;2.20;;;20.50;72.60;;;;;;10456738;28;20276;-65
2021/09/11 21:38:52;;;;;;;2.57;2.13;;;20.50;73.60;;;;;;10456697;28;20193;-65
2021/09/11 21:44:14;;;;;;;2.73;2.30;;;20.50;73.10;;;;;;10434877;28;20229;-65
2021/09/11 21:49:36;;;;;;;2.30;2.10;;;20.50;72.90;;;;;;10438499;28;20220;-66
2021/09/11 21:55:00;;;;;;;2.30;2.10;;;20.50;73.60;;;;;;10455428;28;20217;-65
2021/09/11 22:00:28;;;;;;;2.60;2.40;;;20.50;72.70;;;;;;10455508;28;20193;-65
2021/09/11 22:05:50;;;;;;;2.30;2.10;;;20.50;73.40;;;;;;10456484;28;20209;-65
2021/09/11 22:11:14;;;;;;;2.37;2.17;;;20.50;73.50;;;;;;10468238;28;20595;-65
2021/09/11 22:16:37;;;;;;;2.20;2.10;;;20.50;72.90;;;;;;10477045;28;20445;-65
2021/09/11 22:21:59;;;;;;;2.43;2.23;;;20.90;72.00;;;;;;10496110;28;20192;-66
2021/09/11 22:27:22;;;;;;;2.40;2.20;;;20.70;72.20;;;;;;10482488;28;20216;-65
2021/09/11 22:32:45;;;;;;;1.90;1.80;;;20.60;71.80;;;;;;10414336;28;20571;-65
2021/09/11 22:38:07;;;;;;;2.10;2.00;;;20.60;73.00;;;;;;10413814;28;20201;-65
2021/09/11 22:43:30;;;;;;;2.10;2.00;;;20.50;73.30;;;;;;10412499;28;20213;-65
2021/09/11 22:48:52;;;;;;;2.63;1.80;;;20.50;72.90;;;;;;10425070;28;20213;-65
2021/09/11 22:54:14;;;;;;;2.20;2.00;;;20.50;73.60;;;;;;10453388;28;20598;-65
2021/09/11 22:59:38;;;;;;;1.97;1.87;;;20.50;72.40;;;;;;10446409;28;20204;-65
2021/09/11 23:05:00;;;;;;;2.67;2.47;;;20.50;73.30;;;;;;10452892;28;20225;-65
2021/09/11 23:10:22;;;;;;;1.80;1.70;;;20.40;73.90;;;;;;10452584;28;20628;-65
2021/09/11 23:15:46;;;;;;;2.23;2.10;;;20.50;72.20;;;;;;10452298;28;20228;-65
2021/09/11 23:21:08;;;;;;;2.10;2.00;;;20.50;73.30;;;;;;10452651;28;20195;-65
2021/09/11 23:26:30;;;;;;;1.90;1.80;;;20.40;73.10;;;;;;10417272;28;20224;-65
2021/09/11 23:31:54;;;;;;;2.10;2.00;;;20.50;73.00;;;;;;10451207;28;20689;-65
2021/09/11 23:37:16;;;;;;;2.10;2.00;;;20.40;73.60;;;;;;10451876;28;20263;-65
2021/09/11 23:42:38;;;;;;;2.20;2.00;;;20.50;72.70;;;;;;10451978;28;20189;-66
2021/09/11 23:48:01;;;;;;;2.23;2.13;;;20.50;73.40;;;;;;10450994;28;20212;-65
2021/09/11 23:53:23;;;;;;;1.93;1.80;;;20.40;73.50;;;;;;10448640;28;20243;-65
2021/09/11 23:58:45;;;;;;;2.00;1.90;;;20.40;72.30;;;;;;10452254;28;20201;-65
